sensor_id;sensor_type;location;lat;lon;timestamp;temperature;humidity
3051;DHT22;1535;51.098;6.414;2023-08-06T00:00:54;14.60;99.90
3051;DHT22;1535;51.098;6.414;2023-08-06T00:03:21;14.60;99.90
3051;DHT22;1535;51.098;6.414;2023-08-06T00:05:49;14.60;99.90
3051;DHT22;1535;51.098;6.414;2023-08-06T00:08:16;14.50;99.90
3051;DHT22;1535;51.098;6.414;2023-08-06T00:10:43;14.40;99.90
3051;DHT22;1535;51.098;6.414;2023-08-06T00:13:10;14.40;99.90
3051;DHT22;1535;51.098;6.414;2023-08-06T00:15:38;14.40;99.90
3051;DHT22;1535;51.098;6.414;2023-08-06T00:18:07;14.40;99.90
3051;DHT22;1535;51.098;6.414;2023-08-06T00:20:34;14.40;99.90
3051;DHT22;1535;51.098;6.414;2023-08-06T00:23:01;14.40;99.90
3051;DHT22;1535;51.098;6.414;2023-08-06T00:25:28;14.40;99.90
3051;DHT22;1535;51.098;6.414;2023-08-06T00:27:55;14.30;99.90
3051;DHT22;1535;51.098;6.414;2023-08-06T00:30:23;14.30;99.90
3051;DHT22;1535;51.098;6.414;2023-08-06T00:32:52;14.30;99.90
3051;DHT22;1535;51.098;6.414;2023-08-06T00:35:19;14.20;99.90
3051;DHT22;1535;51.098;6.414;2023-08-06T00:37:46;14.20;99.90
3051;DHT22;1535;51.098;6.414;2023-08-06T00:40:14;14.30;99.90
3051;DHT22;1535;51.098;6.414;2023-08-06T00:42:41;14.40;99.90
3051;DHT22;1535;51.098;6.414;2023-08-06T00:45:10;14.50;99.90
3051;DHT22;1535;51.098;6.414;2023-08-06T00:47:38;14.50;99.90
3051;DHT22;1535;51.098;6.414;2023-08-06T00:50:08;14.60;99.90
3051;DHT22;1535;51.098;6.414;2023-08-06T00:52:36;14.70;99.90
3051;DHT22;1535;51.098;6.414;2023-08-06T00:55:04;14.70;99.90
3051;DHT22;1535;51.098;6.414;2023-08-06T00:57:31;14.80;99.90
3051;DHT22;1535;51.098;6.414;2023-08-06T00:59:58;14.80;99.90
3051;DHT22;1535;51.098;6.414;2023-08-06T01:02:26;14.80;99.90
3051;DHT22;1535;51.098;6.414;2023-08-06T01:04:53;14.90;99.90
3051;DHT22;1535;51.098;6.414;2023-08-06T01:07:33;14.90;99.90
3051;DHT22;1535;51.098;6.414;2023-08-06T01:10:17;14.90;99.90
3051;DHT22;1535;51.098;6.414;2023-08-06T01:12:52;14.90;99.90
3051;DHT22;1535;51.098;6.414;2023-08-06T01:15:23;14.90;99.90
3051;DHT22;1535;51.098;6.414;2023-08-06T01:17:52;15.00;99.90
3051;DHT22;1535;51.098;6.414;2023-08-06T01:20:18;15.00;99.90
3051;DHT22;1535;51.098;6.414;2023-08-06T01:22:46;15.00;99.90
3051;DHT22;1535;51.098;6.414;2023-08-06T01:25:15;15.00;99.90
3051;DHT22;1535;51.098;6.414;2023-08-06T01:27:46;15.00;99.90
3051;DHT22;1535;51.098;6.414;2023-08-06T01:30:17;15.00;99.90
3051;DHT22;1535;51.098;6.414;2023-08-06T01:32:46;15.00;99.90
3051;DHT22;1535;51.098;6.414;2023-08-06T01:35:15;15.00;99.90
3051;DHT22;1535;51.098;6.414;2023-08-06T01:37:43;15.00;99.90
3051;DHT22;1535;51.098;6.414;2023-08-06T01:40:13;15.10;99.90
3051;DHT22;1535;51.098;6.414;2023-08-06T01:42:40;15.10;99.90
3051;DHT22;1535;51.098;6.414;2023-08-06T01:45:08;15.00;99.90
3051;DHT22;1535;51.098;6.414;2023-08-06T01:47:36;15.10;99.90
3051;DHT22;1535;51.098;6.414;2023-08-06T01:50:03;15.10;99.90
3051;DHT22;1535;51.098;6.414;2023-08-06T01:52:30;15.10;99.90
3051;DHT22;1535;51.098;6.414;2023-08-06T01:54:57;15.10;99.90
3051;DHT22;1535;51.098;6.414;2023-08-06T01:57:26;15.10;99.90
3051;DHT22;1535;51.098;6.414;2023-08-06T01:59:52;15.10;99.90
3051;DHT22;1535;51.098;6.414;2023-08-06T02:02:19;15.10;99.90
3051;DHT22;1535;51.098;6.414;2023-08-06T02:04:46;15.20;99.90
3051;DHT22;1535;51.098;6.414;2023-08-06T02:07:13;15.30;99.90
3051;DHT22;1535;51.098;6.414;2023-08-06T02:09:40;15.30;99.90
3051;DHT22;1535;51.098;6.414;2023-08-06T02:12:08;15.30;99.90
3051;DHT22;1535;51.098;6.414;2023-08-06T02:14:36;15.20;99.90
3051;DHT22;1535;51.098;6.414;2023-08-06T02:17:03;15.10;99.90
3051;DHT22;1535;51.098;6.414;2023-08-06T02:19:31;15.00;99.90
3051;DHT22;1535;51.098;6.414;2023-08-06T02:21:58;14.90;99.90
3051;DHT22;1535;51.098;6.414;2023-08-06T02:24:25;14.90;99.90
3051;DHT22;1535;51.098;6.414;2023-08-06T02:26:52;14.80;99.90
3051;DHT22;1535;51.098;6.414;2023-08-06T02:29:21;14.80;99.90
3051;DHT22;1535;51.098;6.414;2023-08-06T02:31:49;14.80;99.90
3051;DHT22;1535;51.098;6.414;2023-08-06T02:34:16;14.80;99.90
3051;DHT22;1535;51.098;6.414;2023-08-06T02:36:46;14.90;99.90
3051;DHT22;1535;51.098;6.414;2023-08-06T02:39:13;14.90;99.90
3051;DHT22;1535;51.098;6.414;2023-08-06T02:41:39;15.00;99.90
3051;DHT22;1535;51.098;6.414;2023-08-06T02:44:06;15.10;99.90
3051;DHT22;1535;51.098;6.414;2023-08-06T02:46:33;15.10;99.90
3051;DHT22;1535;51.098;6.414;2023-08-06T02:49:02;15.10;99.90
3051;DHT22;1535;51.098;6.414;2023-08-06T02:51:28;15.10;99.90
3051;DHT22;1535;51.098;6.414;2023-08-06T02:53:55;15.20;99.90
3051;DHT22;1535;51.098;6.414;2023-08-06T02:56:22;15.20;99.90
3051;DHT22;1535;51.098;6.414;2023-08-06T02:58:50;15.20;99.90
3051;DHT22;1535;51.098;6.414;2023-08-06T03:01:17;15.20;99.90
3051;DHT22;1535;51.098;6.414;2023-08-06T03:03:43;15.20;99.90
3051;DHT22;1535;51.098;6.414;2023-08-06T03:06:12;15.20;99.90
3051;DHT22;1535;51.098;6.414;2023-08-06T03:08:37;15.30;99.90
3051;DHT22;1535;51.098;6.414;2023-08-06T03:11:04;15.30;99.90
3051;DHT22;1535;51.098;6.414;2023-08-06T03:13:32;15.30;99.90
3051;DHT22;1535;51.098;6.414;2023-08-06T03:15:59;15.30;99.90
3051;DHT22;1535;51.098;6.414;2023-08-06T03:18:27;15.30;99.90
3051;DHT22;1535;51.098;6.414;2023-08-06T03:20:54;15.30;99.90
3051;DHT22;1535;51.098;6.414;2023-08-06T03:23:22;15.30;99.90
3051;DHT22;1535;51.098;6.414;2023-08-06T03:25:49;15.30;99.90
3051;DHT22;1535;51.098;6.414;2023-08-06T03:28:16;15.40;99.90
3051;DHT22;1535;51.098;6.414;2023-08-06T03:30:43;15.40;99.90
3051;DHT22;1535;51.098;6.414;2023-08-06T03:33:10;15.40;99.90
3051;DHT22;1535;51.098;6.414;2023-08-06T03:35:37;15.40;99.90
3051;DHT22;1535;51.098;6.414;2023-08-06T03:38:05;15.50;99.90
3051;DHT22;1535;51.098;6.414;2023-08-06T03:40:35;15.50;99.90
3051;DHT22;1535;51.098;6.414;2023-08-06T03:43:02;15.60;99.90
3051;DHT22;1535;51.098;6.414;2023-08-06T03:45:30;15.60;99.90
3051;DHT22;1535;51.098;6.414;2023-08-06T03:47:56;15.60;99.90
3051;DHT22;1535;51.098;6.414;2023-08-06T03:50:24;15.50;99.90
3051;DHT22;1535;51.098;6.414;2023-08-06T03:52:51;15.40;99.90
3051;DHT22;1535;51.098;6.414;2023-08-06T03:55:17;15.50;99.90
3051;DHT22;1535;51.098;6.414;2023-08-06T03:57:46;15.40;99.90
3051;DHT22;1535;51.098;6.414;2023-08-06T04:00:13;15.40;99.90
3051;DHT22;1535;51.098;6.414;2023-08-06T04:02:40;15.30;99.90
3051;DHT22;1535;51.098;6.414;2023-08-06T04:05:07;15.40;99.90
3051;DHT22;1535;51.098;6.414;2023-08-06T04:07:34;15.30;99.90
3051;DHT22;1535;51.098;6.414;2023-08-06T04:10:04;15.30;99.90
3051;DHT22;1535;51.098;6.414;2023-08-06T04:12:31;15.30;99.90
3051;DHT22;1535;51.098;6.414;2023-08-06T04:15:03;15.30;99.90
3051;DHT22;1535;51.098;6.414;2023-08-06T04:17:30;15.30;99.90
3051;DHT22;1535;51.098;6.414;2023-08-06T04:19:57;15.30;99.90
3051;DHT22;1535;51.098;6.414;2023-08-06T04:22:24;15.30;99.90
3051;DHT22;1535;51.098;6.414;2023-08-06T04:24:52;15.40;99.90
3051;DHT22;1535;51.098;6.414;2023-08-06T04:27:19;15.40;99.90
3051;DHT22;1535;51.098;6.414;2023-08-06T04:29:46;15.50;99.90
3051;DHT22;1535;51.098;6.414;2023-08-06T04:32:14;15.50;99.90
3051;DHT22;1535;51.098;6.414;2023-08-06T04:34:42;15.60;99.90
3051;DHT22;1535;51.098;6.414;2023-08-06T04:37:10;15.60;99.90
3051;DHT22;1535;51.098;6.414;2023-08-06T04:39:37;15.60;99.90
3051;DHT22;1535;51.098;6.414;2023-08-06T04:42:06;15.60;99.90
3051;DHT22;1535;51.098;6.414;2023-08-06T04:44:33;15.60;99.90
3051;DHT22;1535;51.098;6.414;2023-08-06T04:47:00;15.60;99.90
3051;DHT22;1535;51.098;6.414;2023-08-06T04:49:28;15.60;99.90
3051;DHT22;1535;51.098;6.414;2023-08-06T04:51:55;15.60;99.90
3051;DHT22;1535;51.098;6.414;2023-08-06T04:54:22;15.60;99.90
3051;DHT22;1535;51.098;6.414;2023-08-06T04:56:48;15.70;99.90
3051;DHT22;1535;51.098;6.414;2023-08-06T04:59:15;15.60;99.90
3051;DHT22;1535;51.098;6.414;2023-08-06T05:01:42;15.70;99.90
3051;DHT22;1535;51.098;6.414;2023-08-06T05:04:08;15.60;99.90
3051;DHT22;1535;51.098;6.414;2023-08-06T05:06:37;15.60;99.90
3051;DHT22;1535;51.098;6.414;2023-08-06T05:09:05;15.50;99.90
3051;DHT22;1535;51.098;6.414;2023-08-06T05:11:32;15.50;99.90
3051;DHT22;1535;51.098;6.414;2023-08-06T05:14:00;15.60;99.90
3051;DHT22;1535;51.098;6.414;2023-08-06T05:16:27;15.60;99.90
3051;DHT22;1535;51.098;6.414;2023-08-06T05:18:54;15.60;99.90
3051;DHT22;1535;51.098;6.414;2023-08-06T05:21:21;15.60;99.90
3051;DHT22;1535;51.098;6.414;2023-08-06T05:23:49;15.70;99.90
3051;DHT22;1535;51.098;6.414;2023-08-06T05:26:17;15.70;99.90
3051;DHT22;1535;51.098;6.414;2023-08-06T05:28:45;15.80;99.90
3051;DHT22;1535;51.098;6.414;2023-08-06T05:31:12;15.80;99.90
3051;DHT22;1535;51.098;6.414;2023-08-06T05:33:39;15.90;99.90
3051;DHT22;1535;51.098;6.414;2023-08-06T05:36:08;15.90;99.90
3051;DHT22;1535;51.098;6.414;2023-08-06T05:38:35;16.00;99.90
3051;DHT22;1535;51.098;6.414;2023-08-06T05:41:05;16.00;99.90
3051;DHT22;1535;51.098;6.414;2023-08-06T05:43:32;16.00;99.90
3051;DHT22;1535;51.098;6.414;2023-08-06T05:45:59;16.00;99.90
3051;DHT22;1535;51.098;6.414;2023-08-06T05:48:26;16.00;99.90
3051;DHT22;1535;51.098;6.414;2023-08-06T05:50:53;16.00;99.90
3051;DHT22;1535;51.098;6.414;2023-08-06T05:53:20;16.10;99.90
3051;DHT22;1535;51.098;6.414;2023-08-06T05:55:48;16.10;99.90
3051;DHT22;1535;51.098;6.414;2023-08-06T05:58:17;16.10;99.90
3051;DHT22;1535;51.098;6.414;2023-08-06T06:00:45;16.10;99.90
3051;DHT22;1535;51.098;6.414;2023-08-06T06:03:12;16.10;99.90
3051;DHT22;1535;51.098;6.414;2023-08-06T06:05:39;16.10;99.90
3051;DHT22;1535;51.098;6.414;2023-08-06T06:08:06;16.10;99.90
3051;DHT22;1535;51.098;6.414;2023-08-06T06:10:33;16.20;99.90
3051;DHT22;1535;51.098;6.414;2023-08-06T06:13:00;16.20;99.90
3051;DHT22;1535;51.098;6.414;2023-08-06T06:15:29;16.20;99.90
3051;DHT22;1535;51.098;6.414;2023-08-06T06:17:56;16.20;99.90
3051;DHT22;1535;51.098;6.414;2023-08-06T06:20:23;16.10;99.90
3051;DHT22;1535;51.098;6.414;2023-08-06T06:22:50;16.10;99.90
3051;DHT22;1535;51.098;6.414;2023-08-06T06:25:16;16.10;99.90
3051;DHT22;1535;51.098;6.414;2023-08-06T06:27:43;16.20;99.90
3051;DHT22;1535;51.098;6.414;2023-08-06T06:30:11;16.30;99.90
3051;DHT22;1535;51.098;6.414;2023-08-06T06:32:39;16.40;99.90
3051;DHT22;1535;51.098;6.414;2023-08-06T06:35:07;16.50;99.90
3051;DHT22;1535;51.098;6.414;2023-08-06T06:37:35;16.60;99.90
3051;DHT22;1535;51.098;6.414;2023-08-06T06:40:03;16.60;99.90
3051;DHT22;1535;51.098;6.414;2023-08-06T06:42:30;16.70;99.90
3051;DHT22;1535;51.098;6.414;2023-08-06T06:44:57;16.70;99.90
3051;DHT22;1535;51.098;6.414;2023-08-06T06:47:24;16.70;99.90
3051;DHT22;1535;51.098;6.414;2023-08-06T06:49:53;16.80;99.90
3051;DHT22;1535;51.098;6.414;2023-08-06T06:52:20;17.00;99.90
3051;DHT22;1535;51.098;6.414;2023-08-06T06:54:47;17.10;99.90
3051;DHT22;1535;51.098;6.414;2023-08-06T06:57:14;17.10;99.90
3051;DHT22;1535;51.098;6.414;2023-08-06T06:59:41;17.10;99.90
3051;DHT22;1535;51.098;6.414;2023-08-06T07:02:08;17.20;99.90
3051;DHT22;1535;51.098;6.414;2023-08-06T07:04:35;17.30;99.90
3051;DHT22;1535;51.098;6.414;2023-08-06T07:07:04;17.50;99.90
3051;DHT22;1535;51.098;6.414;2023-08-06T07:09:31;17.60;99.90
3051;DHT22;1535;51.098;6.414;2023-08-06T07:11:58;17.60;99.90
3051;DHT22;1535;51.098;6.414;2023-08-06T07:14:26;17.70;99.90
3051;DHT22;1535;51.098;6.414;2023-08-06T07:16:52;17.80;99.90
3051;DHT22;1535;51.098;6.414;2023-08-06T07:19:19;17.90;99.90
3051;DHT22;1535;51.098;6.414;2023-08-06T07:21:46;18.00;99.90
3051;DHT22;1535;51.098;6.414;2023-08-06T07:24:15;17.90;99.90
3051;DHT22;1535;51.098;6.414;2023-08-06T07:26:42;17.70;99.90
3051;DHT22;1535;51.098;6.414;2023-08-06T07:29:09;17.80;99.90
3051;DHT22;1535;51.098;6.414;2023-08-06T07:31:35;18.00;99.90
3051;DHT22;1535;51.098;6.414;2023-08-06T07:34:03;18.00;99.90
3051;DHT22;1535;51.098;6.414;2023-08-06T07:36:30;17.90;99.90
3051;DHT22;1535;51.098;6.414;2023-08-06T07:38:57;17.90;99.90
3051;DHT22;1535;51.098;6.414;2023-08-06T07:41:25;18.10;99.90
3051;DHT22;1535;51.098;6.414;2023-08-06T07:43:53;18.30;99.90
3051;DHT22;1535;51.098;6.414;2023-08-06T07:46:20;18.20;99.90
3051;DHT22;1535;51.098;6.414;2023-08-06T07:48:48;18.30;99.90
3051;DHT22;1535;51.098;6.414;2023-08-06T07:51:14;18.20;99.90
3051;DHT22;1535;51.098;6.414;2023-08-06T07:53:41;18.10;99.90
3051;DHT22;1535;51.098;6.414;2023-08-06T07:56:09;18.10;99.90
3051;DHT22;1535;51.098;6.414;2023-08-06T07:58:37;18.00;99.90
3051;DHT22;1535;51.098;6.414;2023-08-06T08:01:06;17.90;99.90
3051;DHT22;1535;51.098;6.414;2023-08-06T08:03:33;17.90;99.90
3051;DHT22;1535;51.098;6.414;2023-08-06T08:05:59;17.80;99.90
3051;DHT22;1535;51.098;6.414;2023-08-06T08:08:27;17.70;99.90
3051;DHT22;1535;51.098;6.414;2023-08-06T08:10:54;17.50;99.90
3051;DHT22;1535;51.098;6.414;2023-08-06T08:13:21;17.40;99.90
3051;DHT22;1535;51.098;6.414;2023-08-06T08:15:50;17.20;99.90
3051;DHT22;1535;51.098;6.414;2023-08-06T08:18:17;16.90;99.90
3051;DHT22;1535;51.098;6.414;2023-08-06T08:20:44;16.80;99.90
3051;DHT22;1535;51.098;6.414;2023-08-06T08:23:11;16.50;99.90
3051;DHT22;1535;51.098;6.414;2023-08-06T08:25:38;16.50;99.90
3051;DHT22;1535;51.098;6.414;2023-08-06T08:28:05;16.40;99.90
3051;DHT22;1535;51.098;6.414;2023-08-06T08:30:32;16.30;99.90
3051;DHT22;1535;51.098;6.414;2023-08-06T08:33:00;16.30;99.90
3051;DHT22;1535;51.098;6.414;2023-08-06T08:35:28;16.30;99.90
3051;DHT22;1535;51.098;6.414;2023-08-06T08:37:55;16.30;99.90
3051;DHT22;1535;51.098;6.414;2023-08-06T08:40:24;16.30;99.90
3051;DHT22;1535;51.098;6.414;2023-08-06T08:42:54;16.20;99.90
3051;DHT22;1535;51.098;6.414;2023-08-06T08:45:26;16.30;99.90
3051;DHT22;1535;51.098;6.414;2023-08-06T08:47:53;16.30;99.90
3051;DHT22;1535;51.098;6.414;2023-08-06T08:50:21;16.20;99.90
3051;DHT22;1535;51.098;6.414;2023-08-06T08:52:51;16.20;99.90
3051;DHT22;1535;51.098;6.414;2023-08-06T08:55:19;16.50;99.90
3051;DHT22;1535;51.098;6.414;2023-08-06T08:57:47;16.60;99.90
3051;DHT22;1535;51.098;6.414;2023-08-06T09:00:14;16.50;99.90
3051;DHT22;1535;51.098;6.414;2023-08-06T09:02:42;16.40;99.90
3051;DHT22;1535;51.098;6.414;2023-08-06T09:05:11;16.00;99.90
3051;DHT22;1535;51.098;6.414;2023-08-06T09:07:42;16.00;99.90
3051;DHT22;1535;51.098;6.414;2023-08-06T09:10:11;15.80;99.90
3051;DHT22;1535;51.098;6.414;2023-08-06T09:12:41;15.70;99.90
3051;DHT22;1535;51.098;6.414;2023-08-06T09:15:09;15.70;99.90
3051;DHT22;1535;51.098;6.414;2023-08-06T09:17:37;15.70;99.90
3051;DHT22;1535;51.098;6.414;2023-08-06T09:20:12;15.80;99.90
3051;DHT22;1535;51.098;6.414;2023-08-06T09:22:41;15.70;99.90
3051;DHT22;1535;51.098;6.414;2023-08-06T09:25:09;15.50;99.90
3051;DHT22;1535;51.098;6.414;2023-08-06T09:27:40;15.40;99.90
3051;DHT22;1535;51.098;6.414;2023-08-06T09:30:08;15.20;99.90
3051;DHT22;1535;51.098;6.414;2023-08-06T09:32:48;15.10;99.90
3051;DHT22;1535;51.098;6.414;2023-08-06T09:35:17;15.00;99.90
3051;DHT22;1535;51.098;6.414;2023-08-06T09:37:48;14.80;99.90
3051;DHT22;1535;51.098;6.414;2023-08-06T09:40:26;14.80;99.90
3051;DHT22;1535;51.098;6.414;2023-08-06T09:42:53;14.90;99.90
3051;DHT22;1535;51.098;6.414;2023-08-06T09:45:20;14.60;99.90
3051;DHT22;1535;51.098;6.414;2023-08-06T09:47:48;14.50;99.90
3051;DHT22;1535;51.098;6.414;2023-08-06T09:50:17;14.60;99.90
3051;DHT22;1535;51.098;6.414;2023-08-06T09:52:48;14.50;99.90
3051;DHT22;1535;51.098;6.414;2023-08-06T09:55:15;14.40;99.90
3051;DHT22;1535;51.098;6.414;2023-08-06T09:57:43;14.40;99.90
3051;DHT22;1535;51.098;6.414;2023-08-06T10:00:12;14.30;99.90
3051;DHT22;1535;51.098;6.414;2023-08-06T10:02:43;14.20;99.90
3051;DHT22;1535;51.098;6.414;2023-08-06T10:05:13;14.30;99.90
3051;DHT22;1535;51.098;6.414;2023-08-06T10:07:40;14.20;99.90
3051;DHT22;1535;51.098;6.414;2023-08-06T10:10:11;14.20;99.90
3051;DHT22;1535;51.098;6.414;2023-08-06T10:12:41;14.30;99.90
3051;DHT22;1535;51.098;6.414;2023-08-06T10:15:13;14.30;99.90
3051;DHT22;1535;51.098;6.414;2023-08-06T10:17:42;14.20;99.90
3051;DHT22;1535;51.098;6.414;2023-08-06T10:20:16;14.20;99.90
3051;DHT22;1535;51.098;6.414;2023-08-06T10:23:00;14.10;99.90
3051;DHT22;1535;51.098;6.414;2023-08-06T10:25:33;14.10;99.90
3051;DHT22;1535;51.098;6.414;2023-08-06T10:28:08;14.10;99.90
3051;DHT22;1535;51.098;6.414;2023-08-06T10:30:43;14.00;99.90
3051;DHT22;1535;51.098;6.414;2023-08-06T10:33:11;14.10;99.90
3051;DHT22;1535;51.098;6.414;2023-08-06T10:35:41;14.20;99.90
3051;DHT22;1535;51.098;6.414;2023-08-06T10:38:12;14.30;99.90
3051;DHT22;1535;51.098;6.414;2023-08-06T10:40:48;14.20;99.90
3051;DHT22;1535;51.098;6.414;2023-08-06T10:43:25;14.30;99.90
3051;DHT22;1535;51.098;6.414;2023-08-06T10:45:52;14.40;99.90
3051;DHT22;1535;51.098;6.414;2023-08-06T10:48:33;14.40;99.90
3051;DHT22;1535;51.098;6.414;2023-08-06T10:51:03;14.40;99.90
3051;DHT22;1535;51.098;6.414;2023-08-06T10:53:34;14.50;99.90
3051;DHT22;1535;51.098;6.414;2023-08-06T10:56:12;14.60;99.90
3051;DHT22;1535;51.098;6.414;2023-08-06T10:58:42;14.80;99.90
3051;DHT22;1535;51.098;6.414;2023-08-06T11:01:11;14.90;99.90
3051;DHT22;1535;51.098;6.414;2023-08-06T11:03:38;15.10;99.90
3051;DHT22;1535;51.098;6.414;2023-08-06T11:06:11;15.40;99.90
3051;DHT22;1535;51.098;6.414;2023-08-06T11:08:50;15.50;99.90
3051;DHT22;1535;51.098;6.414;2023-08-06T11:11:19;15.70;99.90
3051;DHT22;1535;51.098;6.414;2023-08-06T11:13:50;16.00;99.90
3051;DHT22;1535;51.098;6.414;2023-08-06T11:16:23;16.00;99.90
3051;DHT22;1535;51.098;6.414;2023-08-06T11:18:51;16.10;99.90
3051;DHT22;1535;51.098;6.414;2023-08-06T11:21:20;15.90;99.90
3051;DHT22;1535;51.098;6.414;2023-08-06T11:23:47;15.80;99.90
3051;DHT22;1535;51.098;6.414;2023-08-06T11:26:21;15.70;99.90
3051;DHT22;1535;51.098;6.414;2023-08-06T11:28:49;15.90;99.90
3051;DHT22;1535;51.098;6.414;2023-08-06T11:31:19;15.90;99.90
3051;DHT22;1535;51.098;6.414;2023-08-06T11:33:46;15.90;99.90
3051;DHT22;1535;51.098;6.414;2023-08-06T11:36:13;15.70;99.90
3051;DHT22;1535;51.098;6.414;2023-08-06T11:38:40;15.60;99.90
3051;DHT22;1535;51.098;6.414;2023-08-06T11:41:07;15.70;99.90
3051;DHT22;1535;51.098;6.414;2023-08-06T11:43:36;15.70;99.90
3051;DHT22;1535;51.098;6.414;2023-08-06T11:46:03;15.60;99.90
3051;DHT22;1535;51.098;6.414;2023-08-06T11:48:30;15.50;99.90
3051;DHT22;1535;51.098;6.414;2023-08-06T11:51:01;15.60;99.90
3051;DHT22;1535;51.098;6.414;2023-08-06T11:53:31;15.50;99.90
3051;DHT22;1535;51.098;6.414;2023-08-06T11:56:01;15.40;99.90
3051;DHT22;1535;51.098;6.414;2023-08-06T11:58:30;15.30;99.90
3051;DHT22;1535;51.098;6.414;2023-08-06T12:00:59;15.30;99.90
3051;DHT22;1535;51.098;6.414;2023-08-06T12:03:26;15.20;99.90
3051;DHT22;1535;51.098;6.414;2023-08-06T12:05:59;15.30;99.90
3051;DHT22;1535;51.098;6.414;2023-08-06T12:08:29;15.40;99.90
3051;DHT22;1535;51.098;6.414;2023-08-06T12:10:59;15.50;99.90
3051;DHT22;1535;51.098;6.414;2023-08-06T12:13:35;15.40;99.90
3051;DHT22;1535;51.098;6.414;2023-08-06T12:16:04;15.50;99.90
3051;DHT22;1535;51.098;6.414;2023-08-06T12:18:33;15.60;99.90
3051;DHT22;1535;51.098;6.414;2023-08-06T12:20:59;15.70;99.90
3051;DHT22;1535;51.098;6.414;2023-08-06T12:23:31;15.80;99.90
3051;DHT22;1535;51.098;6.414;2023-08-06T12:25:58;16.00;99.90
3051;DHT22;1535;51.098;6.414;2023-08-06T12:28:25;16.30;99.90
3051;DHT22;1535;51.098;6.414;2023-08-06T12:30:52;16.80;99.90
3051;DHT22;1535;51.098;6.414;2023-08-06T12:33:24;17.00;99.90
3051;DHT22;1535;51.098;6.414;2023-08-06T12:35:51;17.40;99.90
3051;DHT22;1535;51.098;6.414;2023-08-06T12:38:21;17.30;99.90
3051;DHT22;1535;51.098;6.414;2023-08-06T12:40:47;17.20;99.90
3051;DHT22;1535;51.098;6.414;2023-08-06T12:43:14;16.90;99.90
3051;DHT22;1535;51.098;6.414;2023-08-06T12:45:41;16.80;99.90
3051;DHT22;1535;51.098;6.414;2023-08-06T12:48:15;16.80;99.90
3051;DHT22;1535;51.098;6.414;2023-08-06T12:50:46;16.80;99.90
3051;DHT22;1535;51.098;6.414;2023-08-06T12:53:14;16.50;99.90
3051;DHT22;1535;51.098;6.414;2023-08-06T12:55:41;16.10;99.90
3051;DHT22;1535;51.098;6.414;2023-08-06T12:58:09;15.90;99.90
3051;DHT22;1535;51.098;6.414;2023-08-06T13:00:40;15.60;99.90
3051;DHT22;1535;51.098;6.414;2023-08-06T13:03:07;15.60;99.90
3051;DHT22;1535;51.098;6.414;2023-08-06T13:05:36;15.60;99.90
3051;DHT22;1535;51.098;6.414;2023-08-06T13:08:06;15.60;99.90
3051;DHT22;1535;51.098;6.414;2023-08-06T13:10:35;15.40;99.90
3051;DHT22;1535;51.098;6.414;2023-08-06T13:13:02;15.30;99.90
3051;DHT22;1535;51.098;6.414;2023-08-06T13:15:33;15.30;99.90
3051;DHT22;1535;51.098;6.414;2023-08-06T13:18:00;15.50;99.90
3051;DHT22;1535;51.098;6.414;2023-08-06T13:20:29;15.70;99.90
3051;DHT22;1535;51.098;6.414;2023-08-06T13:23:00;15.90;99.90
3051;DHT22;1535;51.098;6.414;2023-08-06T13:25:32;15.90;99.90
3051;DHT22;1535;51.098;6.414;2023-08-06T13:28:05;15.90;99.90
3051;DHT22;1535;51.098;6.414;2023-08-06T13:30:33;15.80;99.90
3051;DHT22;1535;51.098;6.414;2023-08-06T13:33:11;16.00;99.90
3051;DHT22;1535;51.098;6.414;2023-08-06T13:35:39;16.50;99.90
3051;DHT22;1535;51.098;6.414;2023-08-06T13:38:08;17.00;99.90
3051;DHT22;1535;51.098;6.414;2023-08-06T13:40:40;16.90;99.90
3051;DHT22;1535;51.098;6.414;2023-08-06T13:43:09;16.70;99.90
3051;DHT22;1535;51.098;6.414;2023-08-06T13:45:36;16.20;99.90
3051;DHT22;1535;51.098;6.414;2023-08-06T13:48:05;15.90;99.90
3051;DHT22;1535;51.098;6.414;2023-08-06T13:50:32;15.90;99.90
3051;DHT22;1535;51.098;6.414;2023-08-06T13:52:59;15.90;99.90
3051;DHT22;1535;51.098;6.414;2023-08-06T13:55:26;15.90;99.90
3051;DHT22;1535;51.098;6.414;2023-08-06T13:57:56;15.80;99.90
3051;DHT22;1535;51.098;6.414;2023-08-06T14:00:23;15.80;99.90
3051;DHT22;1535;51.098;6.414;2023-08-06T14:02:49;15.90;99.90
3051;DHT22;1535;51.098;6.414;2023-08-06T14:05:16;16.10;99.90
3051;DHT22;1535;51.098;6.414;2023-08-06T14:07:43;16.20;99.90
3051;DHT22;1535;51.098;6.414;2023-08-06T14:10:10;16.40;99.90
3051;DHT22;1535;51.098;6.414;2023-08-06T14:12:37;16.40;99.90
3051;DHT22;1535;51.098;6.414;2023-08-06T14:15:07;16.40;99.90
3051;DHT22;1535;51.098;6.414;2023-08-06T14:17:34;16.60;99.90
3051;DHT22;1535;51.098;6.414;2023-08-06T14:20:00;16.70;99.90
3051;DHT22;1535;51.098;6.414;2023-08-06T14:22:30;17.00;99.90
3051;DHT22;1535;51.098;6.414;2023-08-06T14:24:57;17.00;99.90
3051;DHT22;1535;51.098;6.414;2023-08-06T14:27:26;17.30;99.90
3051;DHT22;1535;51.098;6.414;2023-08-06T14:29:54;17.40;99.90
3051;DHT22;1535;51.098;6.414;2023-08-06T14:32:23;17.60;99.90
3051;DHT22;1535;51.098;6.414;2023-08-06T14:34:52;17.60;99.90
3051;DHT22;1535;51.098;6.414;2023-08-06T14:37:22;17.80;99.90
3051;DHT22;1535;51.098;6.414;2023-08-06T14:39:49;18.10;99.90
3051;DHT22;1535;51.098;6.414;2023-08-06T14:42:16;18.20;99.90
3051;DHT22;1535;51.098;6.414;2023-08-06T14:44:43;18.40;99.90
3051;DHT22;1535;51.098;6.414;2023-08-06T14:47:10;18.60;99.90
3051;DHT22;1535;51.098;6.414;2023-08-06T14:49:38;18.70;99.90
3051;DHT22;1535;51.098;6.414;2023-08-06T14:52:06;18.80;99.90
3051;DHT22;1535;51.098;6.414;2023-08-06T14:54:33;18.80;99.90
3051;DHT22;1535;51.098;6.414;2023-08-06T14:57:18;18.80;99.90
3051;DHT22;1535;51.098;6.414;2023-08-06T14:59:50;18.50;99.90
3051;DHT22;1535;51.098;6.414;2023-08-06T15:02:17;18.40;99.90
3051;DHT22;1535;51.098;6.414;2023-08-06T15:04:49;18.30;99.90
3051;DHT22;1535;51.098;6.414;2023-08-06T15:07:16;18.10;99.90
3051;DHT22;1535;51.098;6.414;2023-08-06T15:09:44;18.40;99.90
3051;DHT22;1535;51.098;6.414;2023-08-06T15:12:14;18.60;99.90
3051;DHT22;1535;51.098;6.414;2023-08-06T15:14:45;18.60;99.90
3051;DHT22;1535;51.098;6.414;2023-08-06T15:17:11;18.30;99.90
3051;DHT22;1535;51.098;6.414;2023-08-06T15:19:38;18.10;99.90
3051;DHT22;1535;51.098;6.414;2023-08-06T15:22:07;17.80;99.90
3051;DHT22;1535;51.098;6.414;2023-08-06T15:24:37;17.70;99.90
3051;DHT22;1535;51.098;6.414;2023-08-06T15:27:07;17.60;99.90
3051;DHT22;1535;51.098;6.414;2023-08-06T15:29:34;17.30;99.90
3051;DHT22;1535;51.098;6.414;2023-08-06T15:32:02;17.10;99.90
3051;DHT22;1535;51.098;6.414;2023-08-06T15:34:29;16.90;99.90
3051;DHT22;1535;51.098;6.414;2023-08-06T15:36:56;16.50;99.90
3051;DHT22;1535;51.098;6.414;2023-08-06T15:39:24;16.40;99.90
3051;DHT22;1535;51.098;6.414;2023-08-06T15:41:55;16.30;99.90
3051;DHT22;1535;51.098;6.414;2023-08-06T15:44:29;16.30;99.90
3051;DHT22;1535;51.098;6.414;2023-08-06T15:46:59;16.00;99.90
3051;DHT22;1535;51.098;6.414;2023-08-06T15:49:26;15.80;99.90
3051;DHT22;1535;51.098;6.414;2023-08-06T15:51:53;15.70;99.90
3051;DHT22;1535;51.098;6.414;2023-08-06T15:54:24;15.60;99.90
3051;DHT22;1535;51.098;6.414;2023-08-06T15:56:54;15.70;99.90
3051;DHT22;1535;51.098;6.414;2023-08-06T15:59:25;15.60;99.90
3051;DHT22;1535;51.098;6.414;2023-08-06T16:01:53;15.60;99.90
3051;DHT22;1535;51.098;6.414;2023-08-06T16:04:20;15.60;99.90
3051;DHT22;1535;51.098;6.414;2023-08-06T16:06:49;15.60;99.90
3051;DHT22;1535;51.098;6.414;2023-08-06T16:09:16;15.60;99.90